Time;durP1;ratioP1;P1;durP2;ratioP2;P2;SDS_P1;SDS_P2;PMS_P1;PMS_P2;Temp;Humidity;BMP_temperature;BMP_pressure;BME280_temperature;BME280_humidity;BME280_pressure;Samples;Min_cycle;Max_cycle;Signal;HPM_P1;HPM_P2
2022/01/04 00:00:35;;;;;;;;;;;23.60;47.30;;;;;;1593900;74;733;-69
2022/01/04 00:02:37;;;;;;;;;;;23.60;47.30;;;;;;1593770;74;855;-69
2022/01/04 00:04:39;;;;;;;;;;;23.60;47.30;;;;;;1593932;74;746;-68
2022/01/04 00:06:40;;;;;;;;;;;23.60;47.30;;;;;;1591212;73;800;-67
2022/01/04 00:08:42;;;;;;;;;;;23.70;47.40;;;;;;1589618;74;1129;-68
2022/01/04 00:10:44;;;;;;;;;;;23.60;47.30;;;;;;1589664;74;1915;-70
2022/01/04 00:15:06;;;;;;;;;;;23.60;47.30;;;;;;1592326;73;1634;-70
2022/01/04 00:17:08;;;;;;;;;;;23.50;47.30;;;;;;1593801;74;734;-71
2022/01/04 00:19:10;;;;;;;;;;;23.60;47.30;;;;;;1593053;73;1120;-70
2022/01/04 00:21:12;;;;;;;;;;;23.60;47.30;;;;;;1594028;74;795;-70
2022/01/04 00:23:14;;;;;;;;;;;23.60;47.30;;;;;;1593955;74;753;-70
2022/01/04 00:25:16;;;;;;;;;;;23.60;47.30;;;;;;1593990;74;709;-71
2022/01/04 00:27:18;;;;;;;;;;;23.60;47.30;;;;;;1593507;73;1147;-71
2022/01/04 00:29:20;;;;;;;;;;;23.70;47.50;;;;;;1589391;74;800;-71
2022/01/04 00:31:22;;;;;;;;;;;23.70;47.60;;;;;;1589596;74;1937;-71
2022/01/04 00:33:24;;;;;;;;;;;23.70;47.60;;;;;;1593759;74;777;-71
2022/01/04 00:35:26;;;;;;;;;;;23.60;47.40;;;;;;1593190;73;710;-69
2022/01/04 00:37:27;;;;;;;;;;;23.60;47.40;;;;;;1593651;74;1120;-69
2022/01/04 00:39:29;;;;;;;;;;;23.70;47.60;;;;;;1592810;74;729;-71
2022/01/04 00:41:31;;;;;;;;;;;23.60;47.40;;;;;;1593842;74;794;-70
2022/01/04 00:43:33;;;;;;;;;;;23.70;47.60;;;;;;1593443;73;781;-71
2022/01/04 00:45:37;;;;;;;;;;;23.60;47.40;;;;;;1593640;74;778;-71
2022/01/04 00:49:57;;;;;;;;;;;23.70;47.60;;;;;;1593121;74;803;-70
2022/01/04 00:52:01;;;;;;;;;;;23.60;47.40;;;;;;1593587;74;1952;-71
2022/01/04 00:54:03;;;;;;;;;;;23.60;47.50;;;;;;1589108;74;1215;-70
2022/01/04 00:56:04;;;;;;;;;;;23.60;47.50;;;;;;1594035;74;735;-71
2022/01/04 00:58:06;;;;;;;;;;;23.60;47.50;;;;;;1593081;73;1139;-70
2022/01/04 01:00:09;;;;;;;;;;;23.60;47.50;;;;;;1593857;74;803;-70
2022/01/04 01:02:11;;;;;;;;;;;23.60;47.50;;;;;;1593714;74;758;-71
2022/01/04 01:04:13;;;;;;;;;;;23.70;47.70;;;;;;1593618;74;736;-70
2022/01/04 01:06:15;;;;;;;;;;;23.60;47.50;;;;;;1592916;73;771;-71
2022/01/04 01:08:17;;;;;;;;;;;23.60;47.50;;;;;;1589488;74;1121;-70
2022/01/04 01:12:38;;;;;;;;;;;23.60;47.40;;;;;;1590207;75;1607;-71
2022/01/04 01:14:40;;;;;;;;;;;23.60;47.50;;;;;;1583161;73;765;-70
2022/01/04 01:16:42;;;;;;;;;;;23.60;47.50;;;;;;1593439;74;729;-71
2022/01/04 01:18:44;;;;;;;;;;;23.60;47.50;;;;;;1592249;73;1147;-71
2022/01/04 01:20:47;;;;;;;;;;;23.60;47.50;;;;;;1587976;74;738;-70
2022/01/04 01:22:49;;;;;;;;;;;23.60;47.60;;;;;;1578998;74;727;-69
2022/01/04 01:24:50;;;;;;;;;;;23.70;47.70;;;;;;1586415;74;783;-69
2022/01/04 01:26:52;;;;;;;;;;;23.60;47.50;;;;;;1587742;74;749;-71
2022/01/04 01:28:56;;;;;;;;;;;23.70;47.60;;;;;;1586713;73;1133;-69
2022/01/04 01:30:58;;;;;;;;;;;23.70;47.60;;;;;;1573979;74;1900;-69
2022/01/04 01:32:59;;;;;;;;;;;23.70;47.50;;;;;;1581704;74;764;-69
2022/01/04 01:35:01;;;;;;;;;;;23.60;47.30;;;;;;1580436;74;696;-69
2022/01/04 01:37:03;;;;;;;;;;;23.60;47.30;;;;;;1584851;73;691;-71
2022/01/04 01:39:05;;;;;;;;;;;23.60;47.20;;;;;;1582028;74;1135;-70
2022/01/04 01:41:07;;;;;;;;;;;23.60;47.20;;;;;;1575269;74;738;-70
2022/01/04 01:43:09;;;;;;;;;;;23.70;47.30;;;;;;1570781;74;743;-69
2022/01/04 01:45:13;;;;;;;;;;;23.60;47.10;;;;;;1575462;73;727;-70
2022/01/04 01:47:14;;;;;;;;;;;23.60;47.10;;;;;;1586459;74;1137;-70
2022/01/04 01:49:16;;;;;;;;;;;23.60;47.10;;;;;;1587218;73;886;-70
2022/01/04 01:51:18;;;;;;;;;;;23.60;47.10;;;;;;1581364;74;1953;-69
2022/01/04 01:53:20;;;;;;;;;;;23.60;47.10;;;;;;1578124;74;809;-71
2022/01/04 01:55:22;;;;;;;;;;;23.60;47.10;;;;;;1586820;73;758;-71
2022/01/04 01:57:24;;;;;;;;;;;23.60;47.10;;;;;;1578679;73;1120;-70
2022/01/04 01:59:26;;;;;;;;;;;23.60;47.10;;;;;;1577048;74;780;-70
2022/01/04 02:01:28;;;;;;;;;;;23.60;47.20;;;;;;1588287;74;792;-70
2022/01/04 02:03:30;;;;;;;;;;;23.60;47.10;;;;;;1586344;74;804;-70
2022/01/04 02:05:31;;;;;;;;;;;23.60;47.10;;;;;;1575481;73;779;-70
2022/01/04 02:07:33;;;;;;;;;;;23.60;47.10;;;;;;1578129;74;1263;-70
2022/01/04 02:09:40;;;;;;;;;;;23.60;47.10;;;;;;1589585;74;775;-70
2022/01/04 02:11:39;;;;;;;;;;;23.70;47.30;;;;;;1570311;74;1931;-71
2022/01/04 02:13:41;;;;;;;;;;;23.60;47.20;;;;;;1576008;75;770;-70
2022/01/04 02:15:43;;;;;;;;;;;23.60;47.20;;;;;;1573270;74;794;-71
2022/01/04 02:17:44;;;;;;;;;;;23.60;47.10;;;;;;1577130;75;1092;-71
2022/01/04 02:19:46;;;;;;;;;;;23.60;47.10;;;;;;1582281;74;770;-71
2022/01/04 02:21:48;;;;;;;;;;;23.60;47.10;;;;;;1569297;75;732;-71
2022/01/04 02:23:50;;;;;;;;;;;23.60;47.20;;;;;;1573107;75;762;-71
2022/01/04 02:25:52;;;;;;;;;;;23.70;47.40;;;;;;1572599;75;792;-71
2022/01/04 02:27:54;;;;;;;;;;;23.60;47.20;;;;;;1575062;75;1145;-71
2022/01/04 02:29:56;;;;;;;;;;;23.60;47.20;;;;;;1572803;75;826;-71
2022/01/04 02:31:58;;;;;;;;;;;23.60;47.20;;;;;;1563487;75;1935;-71
2022/01/04 02:34:00;;;;;;;;;;;23.60;47.20;;;;;;1572998;75;802;-71
2022/01/04 02:36:02;;;;;;;;;;;23.60;47.30;;;;;;1573307;74;768;-70
2022/01/04 02:38:04;;;;;;;;;;;23.60;47.30;;;;;;1574154;75;1155;-69
2022/01/04 02:40:06;;;;;;;;;;;23.60;47.30;;;;;;1571514;75;791;-69
2022/01/04 02:42:08;;;;;;;;;;;23.60;47.30;;;;;;1570886;75;770;-69
2022/01/04 02:44:10;;;;;;;;;;;23.60;47.30;;;;;;1575410;75;774;-69
2022/01/04 02:46:12;;;;;;;;;;;23.60;47.30;;;;;;1573653;74;762;-69
2022/01/04 02:48:14;;;;;;;;;;;23.60;47.30;;;;;;1567329;74;1171;-70
2022/01/04 02:50:15;;;;;;;;;;;23.60;47.30;;;;;;1566106;75;802;-69
2022/01/04 02:52:17;;;;;;;;;;;23.60;47.30;;;;;;1576953;75;1947;-70
2022/01/04 02:54:19;;;;;;;;;;;23.60;47.30;;;;;;1578773;75;740;-69
2022/01/04 02:56:21;;;;;;;;;;;23.60;47.30;;;;;;1578162;74;713;-70
2022/01/04 02:58:23;;;;;;;;;;;23.60;47.30;;;;;;1572704;75;1131;-70
2022/01/04 03:00:25;;;;;;;;;;;23.60;47.30;;;;;;1571686;75;763;-71
2022/01/04 03:02:27;;;;;;;;;;;23.50;47.30;;;;;;1571865;75;696;-71
2022/01/04 03:04:29;;;;;;;;;;;23.60;47.40;;;;;;1571583;75;735;-70
2022/01/04 03:06:31;;;;;;;;;;;23.50;47.40;;;;;;1577350;74;762;-70
2022/01/04 03:08:33;;;;;;;;;;;23.60;47.40;;;;;;1541494;74;2053;-67
2022/01/04 03:10:35;;;;;;;;;;;23.60;47.40;;;;;;1482732;80;745;-66
2022/01/04 03:12:39;;;;;;;;;;;23.60;47.40;;;;;;1501651;79;1911;-65
2022/01/04 03:14:40;;;;;;;;;;;23.60;47.40;;;;;;1523042;78;1998;-65
2022/01/04 03:16:42;;;;;;;;;;;23.50;47.50;;;;;;1525854;77;728;-66
2022/01/04 03:21:00;;;;;;;;;;;23.60;47.60;;;;;;1504335;79;881;-67
2022/01/04 03:23:02;;;;;;;;;;;23.60;47.60;;;;;;1510370;79;631;-68
2022/01/04 03:25:04;;;;;;;;;;;23.60;47.60;;;;;;1510162;79;746;-67
2022/01/04 03:27:06;;;;;;;;;;;23.60;47.60;;;;;;1510068;78;808;-67
2022/01/04 03:29:08;;;;;;;;;;;23.70;47.60;;;;;;1511537;77;1143;-67
2022/01/04 03:31:11;;;;;;;;;;;23.60;47.50;;;;;;1521970;77;1932;-68
2022/01/04 03:33:15;;;;;;;;;;;23.60;47.60;;;;;;1533342;77;736;-67
2022/01/04 03:35:17;;;;;;;;;;;23.70;47.70;;;;;;1536022;77;551;-68
2022/01/04 03:37:19;;;;;;;;;;;23.60;47.60;;;;;;1535992;77;756;-67
2022/01/04 03:39:21;;;;;;;;;;;23.70;47.70;;;;;;1535889;76;1150;-67
2022/01/04 03:41:23;;;;;;;;;;;23.70;47.70;;;;;;1516923;77;764;-67
2022/01/04 03:43:25;;;;;;;;;;;23.70;47.70;;;;;;1510587;79;729;-66
2022/01/04 03:45:26;;;;;;;;;;;23.80;47.60;;;;;;1510755;79;713;-66
2022/01/04 03:47:28;;;;;;;;;;;23.80;47.60;;;;;;1510896;79;755;-66
2022/01/04 03:49:30;;;;;;;;;;;23.70;47.70;;;;;;1512902;77;1063;-66
2022/01/04 03:51:32;;;;;;;;;;;23.70;47.70;;;;;;1510864;79;1923;-66
2022/01/04 03:53:34;;;;;;;;;;;23.70;47.80;;;;;;1510627;79;740;-65
2022/01/04 03:55:36;;;;;;;;;;;23.70;47.70;;;;;;1510656;79;779;-65
2022/01/04 03:57:38;;;;;;;;;;;23.70;47.80;;;;;;1510763;77;1147;-66
2022/01/04 03:59:40;;;;;;;;;;;23.70;47.80;;;;;;1510755;78;771;-65
2022/01/04 04:01:42;;;;;;;;;;;23.80;47.70;;;;;;1510790;79;714;-65
2022/01/04 04:03:44;;;;;;;;;;;23.80;47.80;;;;;;1510894;79;782;-65
2022/01/04 04:05:45;;;;;;;;;;;23.70;47.80;;;;;;1522849;77;803;-65
2022/01/04 04:07:47;;;;;;;;;;;23.80;47.80;;;;;;1536522;76;1129;-64
2022/01/04 04:09:49;;;;;;;;;;;23.80;47.80;;;;;;1536565;77;790;-65
2022/01/04 04:11:51;;;;;;;;;;;23.80;47.80;;;;;;1527639;77;1945;-65
2022/01/04 04:13:53;;;;;;;;;;;23.80;47.80;;;;;;1509895;79;748;-66
2022/01/04 04:15:55;;;;;;;;;;;23.80;47.80;;;;;;1509292;79;730;-64
2022/01/04 04:17:57;;;;;;;;;;;23.70;47.90;;;;;;1509352;77;1107;-67
2022/01/04 04:19:59;;;;;;;;;;;23.70;47.90;;;;;;1510691;79;807;-64
2022/01/04 04:22:00;;;;;;;;;;;23.70;48.10;;;;;;1510827;79;770;-64
2022/01/04 04:24:02;;;;;;;;;;;23.60;48.00;;;;;;1510866;77;691;-65
2022/01/04 04:26:06;;;;;;;;;;;23.70;48.20;;;;;;1510731;79;724;-65
2022/01/04 04:28:08;;;;;;;;;;;23.60;48.10;;;;;;1510547;77;1162;-67
2022/01/04 04:30:10;;;;;;;;;;;23.60;48.10;;;;;;1510788;79;741;-65
2022/01/04 04:32:12;;;;;;;;;;;23.60;48.10;;;;;;1510690;79;1927;-67
2022/01/04 04:34:14;;;;;;;;;;;23.70;48.30;;;;;;1510774;79;788;-66
2022/01/04 04:36:16;;;;;;;;;;;23.70;48.30;;;;;;1510496;79;741;-64
2022/01/04 04:38:18;;;;;;;;;;;23.70;48.10;;;;;;1510851;77;1183;-65
2022/01/04 04:40:20;;;;;;;;;;;23.70;48.10;;;;;;1528650;77;700;-64
2022/01/04 04:42:23;;;;;;;;;;;23.70;48.10;;;;;;1519907;77;677;-64
2022/01/04 04:44:24;;;;;;;;;;;23.80;48.00;;;;;;1510510;79;661;-65
2022/01/04 04:46:26;;;;;;;;;;;23.80;47.90;;;;;;1509572;79;748;-66
2022/01/04 04:48:29;;;;;;;;;;;23.80;47.90;;;;;;1507773;77;1191;-65
2022/01/04 04:50:31;;;;;;;;;;;23.70;48.10;;;;;;1510335;79;780;-65
2022/01/04 04:52:33;;;;;;;;;;;23.60;48.10;;;;;;1510175;79;1913;-65
2022/01/04 04:54:35;;;;;;;;;;;23.50;48.30;;;;;;1510479;77;883;-67
2022/01/04 04:56:38;;;;;;;;;;;23.60;48.40;;;;;;1509822;79;750;-65
2022/01/04 04:58:40;;;;;;;;;;;23.50;48.40;;;;;;1509827;77;1138;-66
2022/01/04 05:00:42;;;;;;;;;;;23.50;48.40;;;;;;1510026;79;746;-66
2022/01/04 05:02:44;;;;;;;;;;;23.50;48.40;;;;;;1510568;79;749;-65
2022/01/04 05:04:46;;;;;;;;;;;23.60;48.30;;;;;;1510751;79;665;-65
2022/01/04 05:06:48;;;;;;;;;;;23.50;48.20;;;;;;1535696;77;821;-65
2022/01/04 05:08:50;;;;;;;;;;;23.50;48.10;;;;;;1510279;77;1239;-65
2022/01/04 05:10:52;;;;;;;;;;;23.70;48.10;;;;;;1509938;77;810;-66
2022/01/04 05:12:53;;;;;;;;;;;23.60;47.70;;;;;;1509971;79;1949;-65
2022/01/04 05:14:55;;;;;;;;;;;23.70;47.80;;;;;;1510747;79;717;-66
2022/01/04 05:16:57;;;;;;;;;;;23.70;47.70;;;;;;1510168;79;673;-65
2022/01/04 05:18:59;;;;;;;;;;;23.70;47.60;;;;;;1509335;77;1167;-66
2022/01/04 05:21:01;;;;;;;;;;;23.80;47.40;;;;;;1509819;78;706;-64
2022/01/04 05:23:03;;;;;;;;;;;23.90;47.30;;;;;;1509445;79;707;-64
2022/01/04 05:25:05;;;;;;;;;;;23.80;47.10;;;;;;1509319;79;681;-65
2022/01/04 05:27:07;;;;;;;;;;;23.90;47.10;;;;;;1510209;79;705;-64
2022/01/04 05:29:09;;;;;;;;;;;23.90;47.10;;;;;;1510807;77;1122;-65
2022/01/04 05:31:11;;;;;;;;;;;23.90;47.10;;;;;;1510709;79;780;-64
2022/01/04 05:33:13;;;;;;;;;;;24.00;47.00;;;;;;1510733;79;1929;-66
2022/01/04 05:35:14;;;;;;;;;;;23.90;47.00;;;;;;1510601;79;647;-66
2022/01/04 05:37:16;;;;;;;;;;;23.90;46.90;;;;;;1510608;78;790;-65
2022/01/04 05:39:18;;;;;;;;;;;23.90;46.80;;;;;;1515321;77;1151;-64
2022/01/04 05:41:20;;;;;;;;;;;23.90;46.80;;;;;;1536389;77;744;-64
2022/01/04 05:43:22;;;;;;;;;;;24.00;46.70;;;;;;1536551;77;777;-65
2022/01/04 05:45:24;;;;;;;;;;;23.90;46.80;;;;;;1529169;77;774;-65
2022/01/04 05:47:26;;;;;;;;;;;24.00;46.70;;;;;;1510610;79;808;-65
2022/01/04 05:49:28;;;;;;;;;;;23.90;46.70;;;;;;1510603;77;1091;-65
2022/01/04 05:51:30;;;;;;;;;;;23.90;46.80;;;;;;1510656;79;679;-66
2022/01/04 05:53:33;;;;;;;;;;;23.90;46.80;;;;;;1510092;77;1935;-66
2022/01/04 05:55:35;;;;;;;;;;;24.00;46.80;;;;;;1510175;79;749;-66
2022/01/04 05:57:37;;;;;;;;;;;23.90;46.80;;;;;;1510033;77;1120;-65
2022/01/04 05:59:38;;;;;;;;;;;23.90;46.80;;;;;;1510242;79;808;-65
2022/01/04 06:01:40;;;;;;;;;;;23.90;46.80;;;;;;1509600;79;782;-66
2022/01/04 06:03:44;;;;;;;;;;;23.90;46.80;;;;;;1509906;79;680;-66
2022/01/04 06:05:46;;;;;;;;;;;23.90;46.80;;;;;;1520219;77;834;-63
2022/01/04 06:07:48;;;;;;;;;;;24.00;46.80;;;;;;1510250;77;1151;-66
2022/01/04 06:09:53;;;;;;;;;;;23.90;46.80;;;;;;1510705;77;771;-66
2022/01/04 06:16:17;;;;;;;;;;;23.90;47.10;;;;;;1510507;79;1576;-67
2022/01/04 06:18:19;;;;;;;;;;;23.90;47.20;;;;;;1510701;77;1144;-67
2022/01/04 06:20:22;;;;;;;;;;;23.90;47.20;;;;;;1510537;79;669;-66
2022/01/04 06:22:23;;;;;;;;;;;23.90;47.10;;;;;;1510333;79;761;-67
2022/01/04 06:24:25;;;;;;;;;;;24.00;47.10;;;;;;1509973;79;798;-67
2022/01/04 06:26:28;;;;;;;;;;;23.90;47.10;;;;;;1509703;79;790;-66
2022/01/04 06:28:31;;;;;;;;;;;23.90;47.10;;;;;;1510824;77;1134;-67
2022/01/04 06:30:33;;;;;;;;;;;24.00;47.10;;;;;;1510725;79;575;-66
2022/01/04 06:32:36;;;;;;;;;;;23.90;47.10;;;;;;1510823;77;1943;-66
2022/01/04 06:34:38;;;;;;;;;;;23.90;47.10;;;;;;1510857;79;709;-66
2022/01/04 06:36:40;;;;;;;;;;;23.90;47.20;;;;;;1510323;79;820;-67
2022/01/04 06:38:42;;;;;;;;;;;23.90;47.20;;;;;;1510804;77;1187;-65
2022/01/04 06:40:44;;;;;;;;;;;23.90;47.30;;;;;;1533525;77;783;-66
2022/01/04 06:42:46;;;;;;;;;;;23.80;47.20;;;;;;1536640;77;795;-66
2022/01/04 06:44:47;;;;;;;;;;;23.90;47.30;;;;;;1525525;77;724;-66
2022/01/04 06:46:49;;;;;;;;;;;23.90;47.30;;;;;;1510711;79;686;-66
2022/01/04 06:48:51;;;;;;;;;;;23.80;47.30;;;;;;1510714;77;1139;-67
2022/01/04 06:50:53;;;;;;;;;;;23.80;47.30;;;;;;1510771;79;766;-66
2022/01/04 06:52:55;;;;;;;;;;;23.80;47.30;;;;;;1510740;77;1945;-67
2022/01/04 06:54:57;;;;;;;;;;;23.80;47.30;;;;;;1510492;79;745;-64
2022/01/04 06:56:59;;;;;;;;;;;23.80;47.30;;;;;;1510396;79;799;-66
2022/01/04 06:59:01;;;;;;;;;;;23.80;47.30;;;;;;1510123;77;1151;-65
2022/01/04 07:01:03;;;;;;;;;;;23.80;47.40;;;;;;1510285;79;733;-67
2022/01/04 07:03:04;;;;;;;;;;;23.80;47.30;;;;;;1509638;79;705;-67
2022/01/04 07:05:07;;;;;;;;;;;23.90;47.40;;;;;;1514034;77;721;-68
2022/01/04 07:07:09;;;;;;;;;;;23.80;47.30;;;;;;1521863;77;745;-65
2022/01/04 07:09:11;;;;;;;;;;;23.80;47.30;;;;;;1510798;77;1138;-66
2022/01/04 07:11:13;;;;;;;;;;;23.80;47.20;;;;;;1510700;77;775;-66
2022/01/04 07:13:15;;;;;;;;;;;23.80;47.20;;;;;;1510658;79;1910;-65
2022/01/04 07:15:17;;;;;;;;;;;23.80;47.10;;;;;;1510582;79;713;-65
2022/01/04 07:17:19;;;;;;;;;;;23.90;47.20;;;;;;1510860;79;650;-66
2022/01/04 07:19:22;;;;;;;;;;;23.90;47.20;;;;;;1510444;77;1111;-67
2022/01/04 07:21:24;;;;;;;;;;;23.90;47.10;;;;;;1510330;79;785;-67
2022/01/04 07:23:26;;;;;;;;;;;23.90;47.00;;;;;;1510334;79;655;-66
2022/01/04 07:25:28;;;;;;;;;;;23.90;47.00;;;;;;1510223;79;682;-64
2022/01/04 07:27:30;;;;;;;;;;;23.90;47.00;;;;;;1510095;77;651;-67
2022/01/04 07:29:31;;;;;;;;;;;23.90;47.00;;;;;;1510303;77;1131;-67
2022/01/04 07:31:33;;;;;;;;;;;24.00;46.80;;;;;;1510287;79;729;-64
2022/01/04 07:33:35;;;;;;;;;;;24.00;46.80;;;;;;1510285;79;1933;-64
2022/01/04 07:35:37;;;;;;;;;;;23.90;46.80;;;;;;1510143;78;715;-64
2022/01/04 07:37:39;;;;;;;;;;;24.00;46.80;;;;;;1510259;77;1111;-64
2022/01/04 07:39:41;;;;;;;;;;;24.00;46.80;;;;;;1513195;77;744;-65
2022/01/04 07:41:43;;;;;;;;;;;24.00;46.70;;;;;;1510164;79;675;-64
2022/01/04 07:43:45;;;;;;;;;;;24.00;46.60;;;;;;1510137;79;734;-65
2022/01/04 07:45:46;;;;;;;;;;;24.00;46.60;;;;;;1510154;77;705;-66
2022/01/04 07:47:48;;;;;;;;;;;24.00;46.60;;;;;;1510059;77;1179;-65
2022/01/04 07:49:50;;;;;;;;;;;24.00;46.70;;;;;;1508895;79;804;-65
2022/01/04 07:51:52;;;;;;;;;;;24.00;46.60;;;;;;1510025;79;731;-66
2022/01/04 07:53:54;;;;;;;;;;;24.00;46.50;;;;;;1509053;79;1927;-64
2022/01/04 07:55:56;;;;;;;;;;;24.00;46.50;;;;;;1510254;79;815;-66
2022/01/04 07:57:58;;;;;;;;;;;24.00;46.50;;;;;;1510152;77;1135;-64
2022/01/04 08:00:00;;;;;;;;;;;24.00;46.50;;;;;;1510336;79;731;-65
2022/01/04 08:02:02;;;;;;;;;;;24.00;46.40;;;;;;1509549;79;722;-67
2022/01/04 08:04:04;;;;;;;;;;;24.00;46.40;;;;;;1510687;79;801;-65
2022/01/04 08:06:06;;;;;;;;;;;24.00;46.30;;;;;;1525616;77;798;-67
2022/01/04 08:08:08;;;;;;;;;;;24.00;46.30;;;;;;1510739;77;1152;-64
2022/01/04 08:10:10;;;;;;;;;;;24.00;46.30;;;;;;1510798;77;790;-65
2022/01/04 08:12:13;;;;;;;;;;;24.00;46.20;;;;;;1510777;79;810;-66
2022/01/04 08:14:15;;;;;;;;;;;24.00;46.20;;;;;;1510470;79;1906;-64
2022/01/04 08:16:17;;;;;;;;;;;24.00;46.30;;;;;;1510764;78;680;-64
2022/01/04 08:18:19;;;;;;;;;;;24.00;46.30;;;;;;1510443;77;1172;-65
2022/01/04 08:20:21;;;;;;;;;;;24.00;46.30;;;;;;1510862;79;783;-65
2022/01/04 08:22:23;;;;;;;;;;;24.00;46.30;;;;;;1510827;78;729;-63
2022/01/04 08:24:25;;;;;;;;;;;24.00;46.40;;;;;;1510727;79;801;-64
2022/01/04 08:26:28;;;;;;;;;;;24.00;46.40;;;;;;1510561;79;799;-63
2022/01/04 08:28:30;;;;;;;;;;;24.00;46.40;;;;;;1510798;77;1990;-64
2022/01/04 08:30:32;;;;;;;;;;;24.00;46.40;;;;;;1510776;79;559;-65
2022/01/04 08:32:34;;;;;;;;;;;24.00;46.40;;;;;;1510800;79;712;-66
2022/01/04 08:34:36;;;;;;;;;;;24.00;46.40;;;;;;1510425;79;1949;-64
2022/01/04 08:36:39;;;;;;;;;;;24.00;46.40;;;;;;1510657;79;633;-64
2022/01/04 08:38:41;;;;;;;;;;;24.00;46.40;;;;;;1510729;77;1221;-64
2022/01/04 08:40:42;;;;;;;;;;;24.00;46.50;;;;;;1533177;77;789;-65
2022/01/04 08:42:44;;;;;;;;;;;24.00;46.40;;;;;;1520380;77;787;-66
2022/01/04 08:44:46;;;;;;;;;;;24.00;46.40;;;;;;1510770;79;792;-65
2022/01/04 08:46:48;;;;;;;;;;;24.00;46.40;;;;;;1510648;79;729;-64
2022/01/04 08:48:50;;;;;;;;;;;24.00;46.40;;;;;;1510550;77;1116;-64
2022/01/04 08:50:52;;;;;;;;;;;24.00;46.40;;;;;;1510751;79;734;-64
2022/01/04 08:52:55;;;;;;;;;;;23.90;46.40;;;;;;1510808;78;718;-62
2022/01/04 08:54:57;;;;;;;;;;;24.00;46.40;;;;;;1510680;78;1897;-67
2022/01/04 08:56:59;;;;;;;;;;;24.00;46.50;;;;;;1510489;79;795;-65
2022/01/04 08:59:03;;;;;;;;;;;24.00;46.50;;;;;;1510833;77;1152;-64
2022/01/04 09:01:05;;;;;;;;;;;24.00;46.40;;;;;;1510572;79;1560;-64
2022/01/04 09:03:06;;;;;;;;;;;24.00;46.50;;;;;;1510433;79;655;-65
2022/01/04 09:05:08;;;;;;;;;;;24.00;46.50;;;;;;1510308;77;710;-66
2022/01/04 09:07:10;;;;;;;;;;;24.00;46.40;;;;;;1510029;79;766;-65
2022/01/04 09:09:12;;;;;;;;;;;23.90;46.40;;;;;;1537935;73;2111;-72
2022/01/04 09:11:17;;;;;;;;;;;24.00;46.30;;;;;;1550774;76;825;-75
2022/01/04 09:13:20;;;;;;;;;;;24.00;46.30;;;;;;1552220;76;1918;-71
2022/01/04 09:19:57;;;;;;;;;;;23.90;46.60;;;;;;1542111;76;1217;-74
2022/01/04 09:21:59;;;;;;;;;;;23.80;46.80;;;;;;1541442;76;729;-72
2022/01/04 09:24:00;;;;;;;;;;;23.70;47.20;;;;;;1546622;76;797;-71
2022/01/04 09:26:02;;;;;;;;;;;23.60;47.20;;;;;;1525851;76;786;-69
2022/01/04 09:28:04;;;;;;;;;;;23.60;47.30;;;;;;1544842;75;1089;-71
2022/01/04 09:30:06;;;;;;;;;;;23.50;47.50;;;;;;1547860;76;664;-71
2022/01/04 09:32:13;;;;;;;;;;;23.70;47.30;;;;;;1590672;75;729;-71
2022/01/04 09:34:12;;;;;;;;;;;23.80;46.90;;;;;;1530853;75;1937;-72
2022/01/04 09:36:14;;;;;;;;;;;23.90;46.60;;;;;;1545548;76;752;-74
2022/01/04 09:38:16;;;;;;;;;;;23.90;46.50;;;;;;1542445;76;1119;-71
2022/01/04 09:40:18;;;;;;;;;;;23.90;46.50;;;;;;1530656;77;756;-70
2022/01/04 09:42:20;;;;;;;;;;;23.90;46.60;;;;;;1563674;76;793;-71
2022/01/04 09:44:22;;;;;;;;;;;23.90;46.50;;;;;;1553313;76;743;-71
2022/01/04 09:46:24;;;;;;;;;;;23.90;46.60;;;;;;1538555;77;724;-71
2022/01/04 09:48:26;;;;;;;;;;;23.90;46.50;;;;;;1539516;76;1161;-71
2022/01/04 09:50:28;;;;;;;;;;;23.90;46.40;;;;;;1538580;76;1112;-72
2022/01/04 09:52:30;;;;;;;;;;;23.90;46.50;;;;;;1538720;77;770;-72
2022/01/04 09:54:32;;;;;;;;;;;23.80;46.50;;;;;;1538648;77;1942;-72
2022/01/04 09:56:34;;;;;;;;;;;23.90;46.60;;;;;;1556658;75;716;-71
2022/01/04 09:58:36;;;;;;;;;;;23.80;46.50;;;;;;1568022;75;1172;-72
2022/01/04 10:00:38;;;;;;;;;;;23.80;46.50;;;;;;1562253;75;664;-71
2022/01/04 10:02:39;;;;;;;;;;;23.80;46.60;;;;;;1557445;75;740;-73
2022/01/04 10:04:41;;;;;;;;;;;23.70;46.70;;;;;;1537655;75;740;-70
2022/01/04 10:06:59;;;;;;;;;;;23.80;46.70;;;;;;1550201;75;748;-70
2022/01/04 10:09:08;;;;;;;;;;;23.80;46.70;;;;;;1553094;75;1140;-69
2022/01/04 10:11:10;;;;;;;;;;;23.80;46.60;;;;;;1562189;75;1467;-72
2022/01/04 10:13:12;;;;;;;;;;;23.70;46.80;;;;;;1574848;75;1490;-70
2022/01/04 10:15:14;;;;;;;;;;;23.70;46.80;;;;;;1570399;75;1926;-72
2022/01/04 10:17:23;;;;;;;;;;;23.80;46.80;;;;;;1557610;75;785;-69
2022/01/04 10:19:38;;;;;;;;;;;23.80;46.80;;;;;;1552679;75;1162;-71
2022/01/04 10:21:40;;;;;;;;;;;23.80;46.80;;;;;;1556401;75;737;-69
2022/01/04 10:23:53;;;;;;;;;;;23.70;46.90;;;;;;1556690;75;691;-70
2022/01/04 10:26:04;;;;;;;;;;;23.80;46.80;;;;;;1555079;75;739;-71
2022/01/04 10:28:06;;;;;;;;;;;23.70;46.90;;;;;;1551521;75;1166;-70
2022/01/04 10:30:10;;;;;;;;;;;23.80;46.90;;;;;;1567187;75;785;-69
2022/01/04 10:32:12;;;;;;;;;;;23.70;46.90;;;;;;1581664;75;727;-70
2022/01/04 10:34:14;;;;;;;;;;;23.80;47.10;;;;;;1592105;75;1909;-70
2022/01/04 10:36:19;;;;;;;;;;;23.70;47.30;;;;;;1540355;75;941;-67
2022/01/04 10:38:30;;;;;;;;;;;23.90;47.30;;;;;;1536914;76;1684;-73
2022/01/04 10:40:31;;;;;;;;;;;23.90;47.30;;;;;;1537039;76;740;-71
2022/01/04 10:42:33;;;;;;;;;;;23.90;47.70;;;;;;1532372;77;725;-73
2022/01/04 10:44:35;;;;;;;;;;;23.80;48.00;;;;;;1534127;74;765;-69
2022/01/04 10:46:41;;;;;;;;;;;23.80;48.50;;;;;;1537197;77;734;-68
2022/01/04 10:48:43;;;;;;;;;;;23.90;48.00;;;;;;1537693;76;1314;-67
2022/01/04 10:50:46;;;;;;;;;;;23.90;47.60;;;;;;1537056;77;700;-68
2022/01/04 10:52:48;;;;;;;;;;;23.80;47.50;;;;;;1538824;76;798;-68
2022/01/04 10:55:08;;;;;;;;;;;23.80;47.30;;;;;;1550329;76;1933;-67
2022/01/04 10:57:10;;;;;;;;;;;23.80;47.30;;;;;;1546365;76;894;-68
2022/01/04 10:59:12;;;;;;;;;;;23.80;47.20;;;;;;1525238;76;1156;-64
2022/01/04 11:01:15;;;;;;;;;;;23.70;47.10;;;;;;1553196;76;797;-70
2022/01/04 11:03:25;;;;;;;;;;;23.70;47.10;;;;;;1540344;76;754;-66
2022/01/04 11:05:26;;;;;;;;;;;23.70;46.90;;;;;;1554066;76;1914;-68
2022/01/04 11:07:28;;;;;;;;;;;23.80;46.80;;;;;;1555256;76;768;-68
2022/01/04 11:09:31;;;;;;;;;;;23.70;46.90;;;;;;1548460;76;1141;-69
2022/01/04 11:11:33;;;;;;;;;;;23.70;46.80;;;;;;1557821;76;781;-68
2022/01/04 11:13:35;;;;;;;;;;;23.60;46.60;;;;;;1558080;76;809;-71
2022/01/04 11:15:37;;;;;;;;;;;23.60;46.60;;;;;;1555784;76;1931;-68
2022/01/04 11:17:39;;;;;;;;;;;23.60;46.50;;;;;;1556046;76;790;-67
2022/01/04 11:19:41;;;;;;;;;;;23.60;46.60;;;;;;1555269;76;1146;-68
2022/01/04 11:21:43;;;;;;;;;;;23.60;46.60;;;;;;1548287;76;830;-69
2022/01/04 11:23:45;;;;;;;;;;;23.60;46.60;;;;;;1557856;76;731;-69
2022/01/04 11:25:46;;;;;;;;;;;23.60;46.50;;;;;;1521530;76;1232;-68
2022/01/04 11:27:48;;;;;;;;;;;23.60;46.50;;;;;;1574976;74;750;-68
2022/01/04 11:29:52;;;;;;;;;;;23.60;46.30;;;;;;1606102;72;1114;-69
2022/01/04 11:32:01;;;;;;;;;;;23.50;46.40;;;;;;1586630;72;791;-68
2022/01/04 11:34:05;;;;;;;;;;;23.50;46.10;;;;;;1606833;72;1939;-70
2022/01/04 11:36:07;;;;;;;;;;;23.50;46.00;;;;;;1584660;72;740;-67
2022/01/04 11:38:08;;;;;;;;;;;23.40;45.50;;;;;;1585353;74;1182;-68
2022/01/04 11:40:24;;;;;;;;;;;23.50;45.70;;;;;;1602115;72;750;-74
2022/01/04 11:42:41;;;;;;;;;;;23.40;45.70;;;;;;1605382;72;788;-71
2022/01/04 11:44:49;;;;;;;;;;;23.50;46.10;;;;;;1600488;74;1304;-71
2022/01/04 11:47:02;;;;;;;;;;;23.50;46.30;;;;;;1593537;74;801;-74
2022/01/04 11:49:08;;;;;;;;;;;23.40;46.30;;;;;;1607242;72;1140;-72
2022/01/04 11:51:27;;;;;;;;;;;23.50;46.50;;;;;;1612318;74;703;-73
2022/01/04 11:53:30;;;;;;;;;;;23.50;46.50;;;;;;1612449;74;913;-72
2022/01/04 11:55:36;;;;;;;;;;;23.30;46.50;;;;;;1612288;74;1928;-72
2022/01/04 11:57:39;;;;;;;;;;;23.30;46.80;;;;;;1605307;73;1505;-72
2022/01/04 11:59:47;;;;;;;;;;;23.20;47.10;;;;;;1584632;74;1094;-74
2022/01/04 12:01:49;;;;;;;;;;;23.20;47.30;;;;;;1584156;75;1603;-72
2022/01/04 12:03:51;;;;;;;;;;;23.10;47.60;;;;;;1584671;75;655;-74
2022/01/04 12:05:57;;;;;;;;;;;23.10;47.90;;;;;;1597922;73;744;-74
2022/01/04 12:07:59;;;;;;;;;;;23.10;47.90;;;;;;1584705;75;675;-75
2022/01/04 12:10:06;;;;;;;;;;;23.10;48.00;;;;;;1584654;75;763;-72
2022/01/04 12:12:08;;;;;;;;;;;23.10;48.30;;;;;;1561771;75;1112;-74
2022/01/04 12:14:11;;;;;;;;;;;23.10;48.70;;;;;;1585557;74;728;-72
2022/01/04 12:16:13;;;;;;;;;;;23.10;48.70;;;;;;1580088;75;1985;-71
2022/01/04 12:18:26;;;;;;;;;;;23.10;48.70;;;;;;1584864;74;1116;-72
2022/01/04 12:20:38;;;;;;;;;;;23.10;49.00;;;;;;1584734;75;717;-74
2022/01/04 12:22:40;;;;;;;;;;;23.10;49.20;;;;;;1572247;75;1003;-70
2022/01/04 12:24:43;;;;;;;;;;;23.10;49.30;;;;;;1585695;74;673;-71
2022/01/04 12:26:45;;;;;;;;;;;23.10;49.50;;;;;;1600808;72;792;-73
2022/01/04 12:29:00;;;;;;;;;;;23.00;49.60;;;;;;1625227;72;1133;-72